sensor_id;sensor_type;location;lat;lon;timestamp;temperature;humidity
41939;DHT22;23057;48.554;14.454;2022-10-16T00:02:15;11.60;99.90
41939;DHT22;23057;48.554;14.454;2022-10-16T00:04:46;11.50;99.90
41939;DHT22;23057;48.554;14.454;2022-10-16T00:07:17;11.50;99.90
41939;DHT22;23057;48.554;14.454;2022-10-16T00:09:48;10.60;99.90
41939;DHT22;23057;48.554;14.454;2022-10-16T00:12:19;10.50;99.90
41939;DHT22;23057;48.554;14.454;2022-10-16T00:14:49;10.70;99.90
41939;DHT22;23057;48.554;14.454;2022-10-16T00:17:20;10.90;99.90
41939;DHT22;23057;48.554;14.454;2022-10-16T00:19:51;10.90;99.90
41939;DHT22;23057;48.554;14.454;2022-10-16T00:22:22;11.10;99.90
41939;DHT22;23057;48.554;14.454;2022-10-16T00:24:54;11.10;99.90
41939;DHT22;23057;48.554;14.454;2022-10-16T00:27:25;11.20;99.90
41939;DHT22;23057;48.554;14.454;2022-10-16T00:29:55;11.20;99.90
41939;DHT22;23057;48.554;14.454;2022-10-16T00:32:26;11.20;99.90
41939;DHT22;23057;48.554;14.454;2022-10-16T00:34:57;11.30;99.90
41939;DHT22;23057;48.554;14.454;2022-10-16T00:37:28;11.30;99.90
41939;DHT22;23057;48.554;14.454;2022-10-16T00:39:59;11.30;99.90
41939;DHT22;23057;48.554;14.454;2022-10-16T00:42:30;11.40;99.90
41939;DHT22;23057;48.554;14.454;2022-10-16T00:45:01;11.40;99.90
41939;DHT22;23057;48.554;14.454;2022-10-16T00:47:41;11.40;99.90
41939;DHT22;23057;48.554;14.454;2022-10-16T00:50:28;11.40;99.90
41939;DHT22;23057;48.554;14.454;2022-10-16T00:53:03;11.30;99.90
41939;DHT22;23057;48.554;14.454;2022-10-16T00:55:34;11.10;99.90
41939;DHT22;23057;48.554;14.454;2022-10-16T00:58:06;11.00;99.90
41939;DHT22;23057;48.554;14.454;2022-10-16T01:00:37;11.00;99.90
41939;DHT22;23057;48.554;14.454;2022-10-16T01:03:34;11.00;99.90
41939;DHT22;23057;48.554;14.454;2022-10-16T01:06:26;10.90;99.90
41939;DHT22;23057;48.554;14.454;2022-10-16T01:09:24;10.70;99.90
41939;DHT22;23057;48.554;14.454;2022-10-16T01:12:42;10.70;99.90
41939;DHT22;23057;48.554;14.454;2022-10-16T01:21:10;10.50;99.90
41939;DHT22;23057;48.554;14.454;2022-10-16T01:32:46;10.50;99.90
41939;DHT22;23057;48.554;14.454;2022-10-16T01:35:44;10.60;99.90
41939;DHT22;23057;48.554;14.454;2022-10-16T01:38:26;10.60;99.90
41939;DHT22;23057;48.554;14.454;2022-10-16T01:41:31;10.60;99.90
41939;DHT22;23057;48.554;14.454;2022-10-16T01:44:16;10.60;99.90
41939;DHT22;23057;48.554;14.454;2022-10-16T01:46:57;10.70;99.90
41939;DHT22;23057;48.554;14.454;2022-10-16T01:49:33;10.60;99.90
41939;DHT22;23057;48.554;14.454;2022-10-16T01:52:12;10.50;99.90
41939;DHT22;23057;48.554;14.454;2022-10-16T01:54:52;10.60;99.90
41939;DHT22;23057;48.554;14.454;2022-10-16T01:57:28;10.60;99.90
41939;DHT22;23057;48.554;14.454;2022-10-16T02:00:07;10.70;99.90
41939;DHT22;23057;48.554;14.454;2022-10-16T02:02:45;10.70;99.90
41939;DHT22;23057;48.554;14.454;2022-10-16T02:08:08;10.70;99.90
41939;DHT22;23057;48.554;14.454;2022-10-16T02:10:39;10.40;99.90
41939;DHT22;23057;48.554;14.454;2022-10-16T02:13:15;10.30;99.90
41939;DHT22;23057;48.554;14.454;2022-10-16T02:15:53;10.30;99.90
41939;DHT22;23057;48.554;14.454;2022-10-16T02:18:24;10.40;99.90
41939;DHT22;23057;48.554;14.454;2022-10-16T02:21:25;10.30;99.90
41939;DHT22;23057;48.554;14.454;2022-10-16T02:33:16;9.90;99.90
41939;DHT22;23057;48.554;14.454;2022-10-16T02:35:51;9.70;99.90
41939;DHT22;23057;48.554;14.454;2022-10-16T02:38:25;9.80;99.90
41939;DHT22;23057;48.554;14.454;2022-10-16T02:40:58;9.90;99.90
41939;DHT22;23057;48.554;14.454;2022-10-16T02:43:29;10.00;99.90
41939;DHT22;23057;48.554;14.454;2022-10-16T02:46:00;10.10;99.90
41939;DHT22;23057;48.554;14.454;2022-10-16T02:48:31;10.30;99.90
41939;DHT22;23057;48.554;14.454;2022-10-16T02:51:02;10.40;99.90
41939;DHT22;23057;48.554;14.454;2022-10-16T02:53:33;10.10;99.90
41939;DHT22;23057;48.554;14.454;2022-10-16T02:56:04;10.00;99.90
41939;DHT22;23057;48.554;14.454;2022-10-16T02:58:35;9.90;99.90
41939;DHT22;23057;48.554;14.454;2022-10-16T03:01:06;9.90;99.90
41939;DHT22;23057;48.554;14.454;2022-10-16T03:03:37;9.90;99.90
41939;DHT22;23057;48.554;14.454;2022-10-16T03:06:08;9.90;99.90
41939;DHT22;23057;48.554;14.454;2022-10-16T03:08:39;9.90;99.90
41939;DHT22;23057;48.554;14.454;2022-10-16T03:11:10;9.90;99.90
41939;DHT22;23057;48.554;14.454;2022-10-16T03:13:41;9.90;99.90
41939;DHT22;23057;48.554;14.454;2022-10-16T03:16:12;9.90;99.90
41939;DHT22;23057;48.554;14.454;2022-10-16T03:18:43;9.90;99.90
41939;DHT22;23057;48.554;14.454;2022-10-16T03:21:18;9.80;99.90
41939;DHT22;23057;48.554;14.454;2022-10-16T03:23:49;9.90;99.90
41939;DHT22;23057;48.554;14.454;2022-10-16T03:26:20;9.90;99.90
41939;DHT22;23057;48.554;14.454;2022-10-16T03:28:51;9.80;99.90
41939;DHT22;23057;48.554;14.454;2022-10-16T03:31:22;9.90;99.90
41939;DHT22;23057;48.554;14.454;2022-10-16T03:33:52;9.90;99.90
41939;DHT22;23057;48.554;14.454;2022-10-16T03:36:23;9.90;99.90
41939;DHT22;23057;48.554;14.454;2022-10-16T03:38:54;10.10;99.90
41939;DHT22;23057;48.554;14.454;2022-10-16T03:41:25;10.20;99.90
41939;DHT22;23057;48.554;14.454;2022-10-16T03:43:56;10.30;99.90
41939;DHT22;23057;48.554;14.454;2022-10-16T03:46:27;10.30;99.90
41939;DHT22;23057;48.554;14.454;2022-10-16T03:48:58;10.40;99.90
41939;DHT22;23057;48.554;14.454;2022-10-16T03:51:29;10.40;99.90
41939;DHT22;23057;48.554;14.454;2022-10-16T03:53:59;10.40;99.90
41939;DHT22;23057;48.554;14.454;2022-10-16T03:56:30;10.40;99.90
41939;DHT22;23057;48.554;14.454;2022-10-16T03:59:01;10.50;99.90
41939;DHT22;23057;48.554;14.454;2022-10-16T04:01:32;10.50;99.90
41939;DHT22;23057;48.554;14.454;2022-10-16T04:04:03;10.50;99.90
41939;DHT22;23057;48.554;14.454;2022-10-16T04:06:34;10.40;99.90
41939;DHT22;23057;48.554;14.454;2022-10-16T04:09:05;10.50;99.90
41939;DHT22;23057;48.554;14.454;2022-10-16T04:11:36;10.50;99.90
41939;DHT22;23057;48.554;14.454;2022-10-16T04:14:07;10.50;99.90
41939;DHT22;23057;48.554;14.454;2022-10-16T04:16:38;10.50;99.90
41939;DHT22;23057;48.554;14.454;2022-10-16T04:19:10;10.60;99.90
41939;DHT22;23057;48.554;14.454;2022-10-16T04:21:41;10.60;99.90
41939;DHT22;23057;48.554;14.454;2022-10-16T04:24:12;10.60;99.90
41939;DHT22;23057;48.554;14.454;2022-10-16T04:26:43;10.60;99.90
41939;DHT22;23057;48.554;14.454;2022-10-16T04:29:14;10.60;99.90
41939;DHT22;23057;48.554;14.454;2022-10-16T04:31:45;10.40;99.90
41939;DHT22;23057;48.554;14.454;2022-10-16T04:34:17;9.80;99.90
41939;DHT22;23057;48.554;14.454;2022-10-16T04:36:48;9.70;99.90
41939;DHT22;23057;48.554;14.454;2022-10-16T04:39:22;9.80;99.90
41939;DHT22;23057;48.554;14.454;2022-10-16T04:41:53;9.80;99.90
41939;DHT22;23057;48.554;14.454;2022-10-16T04:44:24;9.80;99.90
41939;DHT22;23057;48.554;14.454;2022-10-16T04:46:55;9.90;99.90
41939;DHT22;23057;48.554;14.454;2022-10-16T04:49:25;10.10;99.90
41939;DHT22;23057;48.554;14.454;2022-10-16T04:51:56;10.10;99.90
41939;DHT22;23057;48.554;14.454;2022-10-16T04:54:27;10.20;99.90
41939;DHT22;23057;48.554;14.454;2022-10-16T04:56:58;10.20;99.90
41939;DHT22;23057;48.554;14.454;2022-10-16T04:59:29;10.20;99.90
41939;DHT22;23057;48.554;14.454;2022-10-16T05:02:00;10.20;99.90
41939;DHT22;23057;48.554;14.454;2022-10-16T05:04:31;10.20;99.90
41939;DHT22;23057;48.554;14.454;2022-10-16T05:07:01;10.20;99.90
41939;DHT22;23057;48.554;14.454;2022-10-16T05:09:32;10.20;99.90
41939;DHT22;23057;48.554;14.454;2022-10-16T05:12:03;10.20;99.90
41939;DHT22;23057;48.554;14.454;2022-10-16T05:14:34;10.30;99.90
41939;DHT22;23057;48.554;14.454;2022-10-16T05:17:06;10.20;99.90
41939;DHT22;23057;48.554;14.454;2022-10-16T05:19:37;10.30;99.90
41939;DHT22;23057;48.554;14.454;2022-10-16T05:22:08;10.30;99.90
41939;DHT22;23057;48.554;14.454;2022-10-16T05:24:39;10.30;99.90
41939;DHT22;23057;48.554;14.454;2022-10-16T05:27:10;10.30;99.90
41939;DHT22;23057;48.554;14.454;2022-10-16T05:29:41;10.40;99.90
41939;DHT22;23057;48.554;14.454;2022-10-16T05:32:16;10.40;99.90
41939;DHT22;23057;48.554;14.454;2022-10-16T05:34:50;10.40;99.90
41939;DHT22;23057;48.554;14.454;2022-10-16T05:37:21;10.30;99.90
41939;DHT22;23057;48.554;14.454;2022-10-16T05:39:52;10.40;99.90
41939;DHT22;23057;48.554;14.454;2022-10-16T05:42:23;10.40;99.90
41939;DHT22;23057;48.554;14.454;2022-10-16T05:44:54;10.60;99.90
41939;DHT22;23057;48.554;14.454;2022-10-16T05:47:25;11.10;99.90
41939;DHT22;23057;48.554;14.454;2022-10-16T05:49:55;11.50;99.90
41939;DHT22;23057;48.554;14.454;2022-10-16T05:52:27;12.30;99.90
41939;DHT22;23057;48.554;14.454;2022-10-16T05:54:58;13.30;99.90
41939;DHT22;23057;48.554;14.454;2022-10-16T05:57:29;13.40;99.90
41939;DHT22;23057;48.554;14.454;2022-10-16T06:00:00;12.80;99.90
41939;DHT22;23057;48.554;14.454;2022-10-16T06:02:31;12.40;99.90
41939;DHT22;23057;48.554;14.454;2022-10-16T06:05:02;14.20;99.90
41939;DHT22;23057;48.554;14.454;2022-10-16T06:07:36;15.60;99.90
41939;DHT22;23057;48.554;14.454;2022-10-16T06:10:07;16.10;99.90
41939;DHT22;23057;48.554;14.454;2022-10-16T06:12:39;15.30;99.90
41939;DHT22;23057;48.554;14.454;2022-10-16T06:15:10;14.40;99.90
41939;DHT22;23057;48.554;14.454;2022-10-16T06:17:40;13.80;99.90
41939;DHT22;23057;48.554;14.454;2022-10-16T06:20:11;15.30;99.90
41939;DHT22;23057;48.554;14.454;2022-10-16T06:22:42;17.40;99.90
41939;DHT22;23057;48.554;14.454;2022-10-16T06:25:13;19.40;99.90
41939;DHT22;23057;48.554;14.454;2022-10-16T06:27:45;19.40;99.90
41939;DHT22;23057;48.554;14.454;2022-10-16T06:30:15;20.10;99.90
41939;DHT22;23057;48.554;14.454;2022-10-16T06:32:46;21.10;99.90
41939;DHT22;23057;48.554;14.454;2022-10-16T06:35:18;21.80;99.90
41939;DHT22;23057;48.554;14.454;2022-10-16T06:37:49;22.10;99.90
41939;DHT22;23057;48.554;14.454;2022-10-16T06:40:19;22.40;99.90
41939;DHT22;23057;48.554;14.454;2022-10-16T06:42:50;22.20;28.00
41939;DHT22;23057;48.554;14.454;2022-10-16T06:45:22;21.10;1.00
41939;DHT22;23057;48.554;14.454;2022-10-16T06:47:53;20.50;1.00
41939;DHT22;23057;48.554;14.454;2022-10-16T06:50:23;20.40;22.90
41939;DHT22;23057;48.554;14.454;2022-10-16T06:52:54;20.70;1.00
41939;DHT22;23057;48.554;14.454;2022-10-16T06:55:25;19.70;96.00
41939;DHT22;23057;48.554;14.454;2022-10-16T06:57:56;19.20;99.90
41939;DHT22;23057;48.554;14.454;2022-10-16T07:00:27;18.20;99.90
41939;DHT22;23057;48.554;14.454;2022-10-16T07:02:58;17.90;1.00
41939;DHT22;23057;48.554;14.454;2022-10-16T07:05:28;17.60;51.70
41939;DHT22;23057;48.554;14.454;2022-10-16T07:07:59;17.60;99.90
41939;DHT22;23057;48.554;14.454;2022-10-16T07:10:30;17.60;99.90
41939;DHT22;23057;48.554;14.454;2022-10-16T07:13:03;17.90;1.00
41939;DHT22;23057;48.554;14.454;2022-10-16T07:15:34;17.80;99.90
41939;DHT22;23057;48.554;14.454;2022-10-16T07:18:05;17.60;1.00
41939;DHT22;23057;48.554;14.454;2022-10-16T07:20:36;17.30;99.90
41939;DHT22;23057;48.554;14.454;2022-10-16T07:23:07;16.80;99.90
41939;DHT22;23057;48.554;14.454;2022-10-16T07:25:38;16.50;43.20
41939;DHT22;23057;48.554;14.454;2022-10-16T07:28:09;16.00;99.90
41939;DHT22;23057;48.554;14.454;2022-10-16T07:30:40;15.70;99.90
41939;DHT22;23057;48.554;14.454;2022-10-16T07:33:11;15.90;99.90
41939;DHT22;23057;48.554;14.454;2022-10-16T07:35:52;15.80;99.90
41939;DHT22;23057;48.554;14.454;2022-10-16T07:38:24;15.70;99.90
41939;DHT22;23057;48.554;14.454;2022-10-16T07:40:57;15.50;99.90
41939;DHT22;23057;48.554;14.454;2022-10-16T07:43:29;15.30;99.90
41939;DHT22;23057;48.554;14.454;2022-10-16T07:46:00;15.20;99.90
41939;DHT22;23057;48.554;14.454;2022-10-16T07:48:33;15.10;99.90
41939;DHT22;23057;48.554;14.454;2022-10-16T07:51:06;15.20;99.90
41939;DHT22;23057;48.554;14.454;2022-10-16T07:53:38;15.20;99.90
41939;DHT22;23057;48.554;14.454;2022-10-16T07:56:09;15.30;99.90
41939;DHT22;23057;48.554;14.454;2022-10-16T07:58:42;15.30;99.90
41939;DHT22;23057;48.554;14.454;2022-10-16T08:01:15;15.50;99.90
41939;DHT22;23057;48.554;14.454;2022-10-16T08:03:52;15.70;99.90
41939;DHT22;23057;48.554;14.454;2022-10-16T08:06:23;15.70;99.90
41939;DHT22;23057;48.554;14.454;2022-10-16T08:08:55;15.80;99.90
41939;DHT22;23057;48.554;14.454;2022-10-16T08:11:26;15.70;99.90
41939;DHT22;23057;48.554;14.454;2022-10-16T08:13:57;15.80;99.90
41939;DHT22;23057;48.554;14.454;2022-10-16T08:16:28;15.60;99.90
41939;DHT22;23057;48.554;14.454;2022-10-16T08:18:59;15.50;99.90
41939;DHT22;23057;48.554;14.454;2022-10-16T08:21:30;15.50;99.90
41939;DHT22;23057;48.554;14.454;2022-10-16T08:24:01;15.70;99.90
41939;DHT22;23057;48.554;14.454;2022-10-16T08:26:31;15.80;99.90
41939;DHT22;23057;48.554;14.454;2022-10-16T08:29:02;16.10;99.90
41939;DHT22;23057;48.554;14.454;2022-10-16T08:31:33;16.40;99.90
41939;DHT22;23057;48.554;14.454;2022-10-16T08:34:04;16.90;99.90
41939;DHT22;23057;48.554;14.454;2022-10-16T08:36:35;16.90;99.90
41939;DHT22;23057;48.554;14.454;2022-10-16T08:39:06;16.90;99.90
41939;DHT22;23057;48.554;14.454;2022-10-16T08:42:14;16.80;99.90
41939;DHT22;23057;48.554;14.454;2022-10-16T08:48:27;17.10;99.90
41939;DHT22;23057;48.554;14.454;2022-10-16T08:51:30;17.80;99.90
41939;DHT22;23057;48.554;14.454;2022-10-16T08:54:21;18.30;1.00
41939;DHT22;23057;48.554;14.454;2022-10-16T08:57:13;18.60;99.90
41939;DHT22;23057;48.554;14.454;2022-10-16T08:59:51;19.00;99.90
41939;DHT22;23057;48.554;14.454;2022-10-16T09:02:40;19.10;1.00
41939;DHT22;23057;48.554;14.454;2022-10-16T09:06:38;19.20;99.90
41939;DHT22;23057;48.554;14.454;2022-10-16T09:15:34;19.40;1.00
41939;DHT22;23057;48.554;14.454;2022-10-16T09:18:45;19.70;1.00
41939;DHT22;23057;48.554;14.454;2022-10-16T09:21:40;19.80;99.90
41939;DHT22;23057;48.554;14.454;2022-10-16T09:24:19;19.70;99.90
41939;DHT22;23057;48.554;14.454;2022-10-16T09:26:55;19.90;99.90
41939;DHT22;23057;48.554;14.454;2022-10-16T09:29:26;20.20;99.90
41939;DHT22;23057;48.554;14.454;2022-10-16T09:32:14;20.40;99.90
41939;DHT22;23057;48.554;14.454;2022-10-16T09:34:54;20.30;99.90
41939;DHT22;23057;48.554;14.454;2022-10-16T09:37:27;20.10;99.90
41939;DHT22;23057;48.554;14.454;2022-10-16T09:39:58;20.00;50.40
41939;DHT22;23057;48.554;14.454;2022-10-16T09:42:35;19.90;99.90
41939;DHT22;23057;48.554;14.454;2022-10-16T09:45:21;19.50;99.90
41939;DHT22;23057;48.554;14.454;2022-10-16T09:47:54;19.40;99.90
41939;DHT22;23057;48.554;14.454;2022-10-16T09:50:27;19.40;99.90
41939;DHT22;23057;48.554;14.454;2022-10-16T09:53:13;19.50;99.90
41939;DHT22;23057;48.554;14.454;2022-10-16T09:55:49;19.20;99.90
41939;DHT22;23057;48.554;14.454;2022-10-16T09:58:22;19.30;99.90
41939;DHT22;23057;48.554;14.454;2022-10-16T10:00:54;19.30;99.90
41939;DHT22;23057;48.554;14.454;2022-10-16T10:03:38;19.20;99.90
41939;DHT22;23057;48.554;14.454;2022-10-16T10:06:25;19.40;99.90
41939;DHT22;23057;48.554;14.454;2022-10-16T10:09:34;19.50;84.40
41939;DHT22;23057;48.554;14.454;2022-10-16T10:12:23;19.80;70.30
41939;DHT22;23057;48.554;14.454;2022-10-16T10:15:12;20.10;92.00
41939;DHT22;23057;48.554;14.454;2022-10-16T10:17:53;20.10;99.90
41939;DHT22;23057;48.554;14.454;2022-10-16T10:20:35;19.90;99.90
41939;DHT22;23057;48.554;14.454;2022-10-16T10:23:23;19.80;99.90
41939;DHT22;23057;48.554;14.454;2022-10-16T10:26:02;19.40;99.90
41939;DHT22;23057;48.554;14.454;2022-10-16T10:32:11;19.50;99.90
41939;DHT22;23057;48.554;14.454;2022-10-16T10:35:40;19.40;99.90
41939;DHT22;23057;48.554;14.454;2022-10-16T10:38:33;19.60;99.90
41939;DHT22;23057;48.554;14.454;2022-10-16T10:44:06;19.80;99.90
41939;DHT22;23057;48.554;14.454;2022-10-16T10:54:01;20.40;99.90
41939;DHT22;23057;48.554;14.454;2022-10-16T10:56:58;20.80;99.90
41939;DHT22;23057;48.554;14.454;2022-10-16T11:06:11;21.20;16.10
41939;DHT22;23057;48.554;14.454;2022-10-16T11:09:31;21.30;99.90
41939;DHT22;23057;48.554;14.454;2022-10-16T11:12:22;21.10;99.90
41939;DHT22;23057;48.554;14.454;2022-10-16T11:18:04;21.60;91.20
41939;DHT22;23057;48.554;14.454;2022-10-16T11:21:22;22.00;22.00
41939;DHT22;23057;48.554;14.454;2022-10-16T11:24:06;22.10;47.50
41939;DHT22;23057;48.554;14.454;2022-10-16T11:27:07;22.30;50.50
41939;DHT22;23057;48.554;14.454;2022-10-16T11:29:54;22.20;1.00
41939;DHT22;23057;48.554;14.454;2022-10-16T11:32:40;22.30;1.00
41939;DHT22;23057;48.554;14.454;2022-10-16T11:41:56;22.40;1.00
41939;DHT22;23057;48.554;14.454;2022-10-16T11:44:57;21.90;1.00
41939;DHT22;23057;48.554;14.454;2022-10-16T11:47:46;22.00;1.00
41939;DHT22;23057;48.554;14.454;2022-10-16T11:50:53;22.10;1.00
41939;DHT22;23057;48.554;14.454;2022-10-16T11:53:49;22.40;1.00
41939;DHT22;23057;48.554;14.454;2022-10-16T11:56:35;22.40;1.00
41939;DHT22;23057;48.554;14.454;2022-10-16T11:59:24;22.60;1.00
41939;DHT22;23057;48.554;14.454;2022-10-16T12:08:54;22.70;1.00
41939;DHT22;23057;48.554;14.454;2022-10-16T12:16:54;22.70;1.00
41939;DHT22;23057;48.554;14.454;2022-10-16T12:19:32;22.80;1.00
41939;DHT22;23057;48.554;14.454;2022-10-16T12:22:03;22.70;1.00
41939;DHT22;23057;48.554;14.454;2022-10-16T12:24:41;22.50;1.00
41939;DHT22;23057;48.554;14.454;2022-10-16T12:27:30;22.30;1.00
41939;DHT22;23057;48.554;14.454;2022-10-16T12:30:05;22.50;1.00
41939;DHT22;23057;48.554;14.454;2022-10-16T12:32:38;22.60;1.00
41939;DHT22;23057;48.554;14.454;2022-10-16T12:35:25;22.50;99.90
41939;DHT22;23057;48.554;14.454;2022-10-16T12:38:49;22.50;99.90
41939;DHT22;23057;48.554;14.454;2022-10-16T12:41:39;22.70;99.90
41939;DHT22;23057;48.554;14.454;2022-10-16T12:44:23;22.30;99.90
41939;DHT22;23057;48.554;14.454;2022-10-16T12:46:56;22.30;1.00
41939;DHT22;23057;48.554;14.454;2022-10-16T12:49:36;22.40;1.00
41939;DHT22;23057;48.554;14.454;2022-10-16T12:52:38;22.70;1.00
41939;DHT22;23057;48.554;14.454;2022-10-16T12:55:17;22.40;1.00
41939;DHT22;23057;48.554;14.454;2022-10-16T13:00:46;22.40;1.00
41939;DHT22;23057;48.554;14.454;2022-10-16T13:04:11;22.70;1.00
41939;DHT22;23057;48.554;14.454;2022-10-16T13:13:37;23.00;1.00
41939;DHT22;23057;48.554;14.454;2022-10-16T13:16:46;23.20;1.00
41939;DHT22;23057;48.554;14.454;2022-10-16T13:20:52;22.80;1.00
41939;DHT22;23057;48.554;14.454;2022-10-16T13:24:31;22.40;1.00
41939;DHT22;23057;48.554;14.454;2022-10-16T13:27:12;22.70;1.00
41939;DHT22;23057;48.554;14.454;2022-10-16T13:30:23;22.80;1.00
41939;DHT22;23057;48.554;14.454;2022-10-16T13:33:00;22.80;1.00
41939;DHT22;23057;48.554;14.454;2022-10-16T13:35:52;22.50;1.00
41939;DHT22;23057;48.554;14.454;2022-10-16T13:38:30;22.50;1.00
41939;DHT22;23057;48.554;14.454;2022-10-16T13:41:11;22.40;1.00
41939;DHT22;23057;48.554;14.454;2022-10-16T13:43:52;22.30;1.00
41939;DHT22;23057;48.554;14.454;2022-10-16T13:46:26;22.70;1.00
41939;DHT22;23057;48.554;14.454;2022-10-16T13:51:36;22.50;1.00
41939;DHT22;23057;48.554;14.454;2022-10-16T13:54:10;22.60;1.00
41939;DHT22;23057;48.554;14.454;2022-10-16T13:56:42;22.70;1.00
41939;DHT22;23057;48.554;14.454;2022-10-16T13:59:27;22.70;1.00
41939;DHT22;23057;48.554;14.454;2022-10-16T14:02:35;22.80;1.00
41939;DHT22;23057;48.554;14.454;2022-10-16T14:05:10;22.90;1.00
41939;DHT22;23057;48.554;14.454;2022-10-16T14:07:42;23.00;1.00
41939;DHT22;23057;48.554;14.454;2022-10-16T14:10:30;22.60;1.00
41939;DHT22;23057;48.554;14.454;2022-10-16T14:13:05;22.60;1.00
41939;DHT22;23057;48.554;14.454;2022-10-16T14:15:47;22.60;1.00
41939;DHT22;23057;48.554;14.454;2022-10-16T14:18:24;22.50;1.00
41939;DHT22;23057;48.554;14.454;2022-10-16T14:21:04;22.40;1.00
41939;DHT22;23057;48.554;14.454;2022-10-16T14:23:42;22.30;1.00
41939;DHT22;23057;48.554;14.454;2022-10-16T14:26:16;22.30;1.00
41939;DHT22;23057;48.554;14.454;2022-10-16T14:29:08;22.20;1.00
41939;DHT22;23057;48.554;14.454;2022-10-16T14:34:38;22.00;1.00
41939;DHT22;23057;48.554;14.454;2022-10-16T14:37:29;22.00;1.00
41939;DHT22;23057;48.554;14.454;2022-10-16T14:40:02;21.90;1.00
41939;DHT22;23057;48.554;14.454;2022-10-16T14:42:34;21.80;13.70
41939;DHT22;23057;48.554;14.454;2022-10-16T14:45:09;21.80;7.90
41939;DHT22;23057;48.554;14.454;2022-10-16T14:47:51;21.70;1.00
41939;DHT22;23057;48.554;14.454;2022-10-16T14:50:26;21.60;1.00
41939;DHT22;23057;48.554;14.454;2022-10-16T14:52:58;21.30;15.50
41939;DHT22;23057;48.554;14.454;2022-10-16T14:55:29;21.20;18.70
41939;DHT22;23057;48.554;14.454;2022-10-16T14:58:00;21.00;32.30
41939;DHT22;23057;48.554;14.454;2022-10-16T15:00:32;20.90;58.70
41939;DHT22;23057;48.554;14.454;2022-10-16T15:03:03;20.50;47.40
41939;DHT22;23057;48.554;14.454;2022-10-16T15:05:33;20.30;92.40
41939;DHT22;23057;48.554;14.454;2022-10-16T15:08:05;20.30;99.90
41939;DHT22;23057;48.554;14.454;2022-10-16T15:10:40;20.30;99.90
41939;DHT22;23057;48.554;14.454;2022-10-16T15:13:14;20.30;99.90
41939;DHT22;23057;48.554;14.454;2022-10-16T15:15:46;20.30;99.90
41939;DHT22;23057;48.554;14.454;2022-10-16T15:18:19;20.20;99.90
41939;DHT22;23057;48.554;14.454;2022-10-16T15:20:51;20.10;99.90
41939;DHT22;23057;48.554;14.454;2022-10-16T15:23:22;20.10;99.90
41939;DHT22;23057;48.554;14.454;2022-10-16T15:25:55;19.90;99.90
41939;DHT22;23057;48.554;14.454;2022-10-16T15:28:26;19.70;99.90
41939;DHT22;23057;48.554;14.454;2022-10-16T15:30:57;19.60;99.90
41939;DHT22;23057;48.554;14.454;2022-10-16T15:33:29;19.40;99.90
41939;DHT22;23057;48.554;14.454;2022-10-16T15:36:03;19.40;99.90
41939;DHT22;23057;48.554;14.454;2022-10-16T15:38:35;19.40;99.90
41939;DHT22;23057;48.554;14.454;2022-10-16T15:41:06;19.40;99.90
41939;DHT22;23057;48.554;14.454;2022-10-16T15:43:37;19.50;99.90
41939;DHT22;23057;48.554;14.454;2022-10-16T15:46:11;19.40;99.90
41939;DHT22;23057;48.554;14.454;2022-10-16T15:48:44;19.30;1.00
41939;DHT22;23057;48.554;14.454;2022-10-16T15:51:17;19.20;1.00
41939;DHT22;23057;48.554;14.454;2022-10-16T15:53:48;19.10;1.00
41939;DHT22;23057;48.554;14.454;2022-10-16T15:56:21;19.00;3.70
41939;DHT22;23057;48.554;14.454;2022-10-16T15:58:52;18.80;93.40
41939;DHT22;23057;48.554;14.454;2022-10-16T16:01:24;18.80;99.90
41939;DHT22;23057;48.554;14.454;2022-10-16T16:03:55;18.80;99.90
41939;DHT22;23057;48.554;14.454;2022-10-16T16:06:26;18.80;99.90
41939;DHT22;23057;48.554;14.454;2022-10-16T16:08:58;18.60;99.90
41939;DHT22;23057;48.554;14.454;2022-10-16T16:11:30;18.50;99.90
41939;DHT22;23057;48.554;14.454;2022-10-16T16:14:02;18.50;99.90
41939;DHT22;23057;48.554;14.454;2022-10-16T16:16:33;18.40;99.90
41939;DHT22;23057;48.554;14.454;2022-10-16T16:19:07;18.40;99.90
41939;DHT22;23057;48.554;14.454;2022-10-16T16:21:39;18.50;99.90
41939;DHT22;23057;48.554;14.454;2022-10-16T16:24:10;18.40;99.90
41939;DHT22;23057;48.554;14.454;2022-10-16T16:26:41;18.30;1.00
41939;DHT22;23057;48.554;14.454;2022-10-16T16:29:15;18.20;1.00
41939;DHT22;23057;48.554;14.454;2022-10-16T16:31:46;18.10;57.80
41939;DHT22;23057;48.554;14.454;2022-10-16T16:34:17;18.00;1.00
41939;DHT22;23057;48.554;14.454;2022-10-16T16:36:49;17.90;1.00
41939;DHT22;23057;48.554;14.454;2022-10-16T16:39:19;17.60;99.90
41939;DHT22;23057;48.554;14.454;2022-10-16T16:41:51;17.40;67.60
41939;DHT22;23057;48.554;14.454;2022-10-16T16:44:22;17.20;99.90
41939;DHT22;23057;48.554;14.454;2022-10-16T16:46:53;17.10;99.90
41939;DHT22;23057;48.554;14.454;2022-10-16T16:49:24;17.10;99.90
41939;DHT22;23057;48.554;14.454;2022-10-16T16:51:55;17.10;99.90
41939;DHT22;23057;48.554;14.454;2022-10-16T16:54:26;17.10;99.90
41939;DHT22;23057;48.554;14.454;2022-10-16T16:56:57;17.00;99.90
41939;DHT22;23057;48.554;14.454;2022-10-16T16:59:28;17.00;99.90
41939;DHT22;23057;48.554;14.454;2022-10-16T17:02:03;16.90;99.90
41939;DHT22;23057;48.554;14.454;2022-10-16T17:04:34;16.90;99.90
41939;DHT22;23057;48.554;14.454;2022-10-16T17:07:05;16.60;99.90
41939;DHT22;23057;48.554;14.454;2022-10-16T17:09:36;16.30;99.90
41939;DHT22;23057;48.554;14.454;2022-10-16T17:12:07;16.10;99.90
41939;DHT22;23057;48.554;14.454;2022-10-16T17:14:38;15.90;99.90
41939;DHT22;23057;48.554;14.454;2022-10-16T17:17:09;15.70;99.90
41939;DHT22;23057;48.554;14.454;2022-10-16T17:19:40;15.60;99.90
41939;DHT22;23057;48.554;14.454;2022-10-16T17:22:11;15.50;99.90
41939;DHT22;23057;48.554;14.454;2022-10-16T17:24:42;15.50;99.90
41939;DHT22;23057;48.554;14.454;2022-10-16T17:27:13;15.50;99.90
41939;DHT22;23057;48.554;14.454;2022-10-16T17:29:44;15.60;99.90
41939;DHT22;23057;48.554;14.454;2022-10-16T17:32:15;15.60;99.90
41939;DHT22;23057;48.554;14.454;2022-10-16T17:34:46;15.70;99.90
41939;DHT22;23057;48.554;14.454;2022-10-16T17:37:17;15.70;99.90
41939;DHT22;23057;48.554;14.454;2022-10-16T17:39:49;15.70;99.90
41939;DHT22;23057;48.554;14.454;2022-10-16T17:42:21;15.70;99.90
41939;DHT22;23057;48.554;14.454;2022-10-16T17:44:52;15.60;99.90
41939;DHT22;23057;48.554;14.454;2022-10-16T17:47:23;15.60;99.90
41939;DHT22;23057;48.554;14.454;2022-10-16T17:49:54;15.50;99.90
41939;DHT22;23057;48.554;14.454;2022-10-16T17:52:26;15.40;99.90
41939;DHT22;23057;48.554;14.454;2022-10-16T17:54:57;15.30;99.90